createdAt,value
2023-01-27T00:03:44.969Z,4.91
2023-01-27T00:07:47.042Z,5.04
2023-01-27T00:11:59.692Z,5.06
2023-01-27T00:16:02.639Z,5.25
2023-01-27T00:20:03.964Z,5.34
2023-01-27T00:24:16.784Z,5.07
2023-01-27T00:28:22.922Z,5.33
2023-01-27T00:32:38.132Z,5.39
2023-01-27T00:36:39.916Z,5.50
2023-01-27T00:40:40.050Z,5.49
2023-01-27T00:45:00.184Z,5.42
2023-01-27T00:49:03.038Z,5.37
2023-01-27T00:53:03.709Z,5.24
2023-01-27T00:57:04.432Z,5.35
2023-01-27T01:01:08.031Z,5.31
2023-01-27T01:05:11.834Z,5.23
2023-01-27T01:09:11.858Z,5.18
2023-01-27T01:13:12.376Z,5.12
2023-01-27T01:17:12.517Z,5.10
2023-01-27T01:21:16.298Z,5.25
2023-01-27T01:25:16.622Z,5.19
2023-01-27T01:29:16.921Z,5.12
2023-01-27T01:33:17.085Z,5.26
2023-01-27T01:37:19.883Z,5.05
2023-01-27T01:41:23.002Z,5.20
2023-01-27T01:45:50.558Z,5.25
2023-01-27T01:49:51.227Z,5.16
2023-01-27T01:54:00.876Z,5.11
2023-01-27T01:58:01.353Z,5.10
2023-01-27T02:02:07.779Z,5.04
2023-01-27T02:06:09.347Z,5.11
2023-01-27T02:10:14.021Z,5.12
2023-01-27T02:14:18.945Z,5.09
2023-01-27T02:18:22.278Z,5.02
2023-01-27T02:22:31.556Z,5.03
2023-01-27T02:26:39.948Z,4.97
2023-01-27T02:30:40.195Z,4.90
2023-01-27T02:34:41.420Z,4.96
2023-01-27T02:38:49.335Z,4.95
2023-01-27T02:42:52.795Z,4.83
2023-01-27T02:46:53.171Z,4.86
2023-01-27T02:50:56.172Z,5.00
2023-01-27T02:54:56.280Z,5.00
2023-01-27T02:58:59.179Z,4.93
2023-01-27T03:03:07.727Z,4.75
2023-01-27T03:07:07.940Z,4.78
2023-01-27T03:11:08.890Z,4.86
2023-01-27T03:15:26.019Z,4.86
2023-01-27T03:19:26.882Z,4.88
2023-01-27T03:23:27.843Z,4.84
2023-01-27T03:27:28.151Z,4.83
2023-01-27T03:31:54.770Z,5.13
2023-01-27T03:36:07.680Z,4.97
2023-01-27T03:40:24.713Z,4.98
2023-01-27T03:44:37.324Z,4.96
2023-01-27T03:48:40.583Z,5.00
2023-01-27T03:52:40.698Z,5.02
2023-01-27T03:56:40.713Z,4.97
2023-01-27T04:00:40.767Z,4.93
2023-01-27T04:04:55.876Z,4.98
2023-01-27T04:08:56.485Z,4.83
2023-01-27T04:12:56.566Z,4.94
2023-01-27T04:16:59.772Z,5.03
2023-01-27T04:21:02.404Z,4.93
2023-01-27T04:25:02.682Z,4.95
2023-01-27T04:29:03.424Z,5.05
2023-01-27T04:33:05.464Z,5.03
2023-01-27T04:37:09.872Z,4.90
2023-01-27T04:41:09.931Z,4.80
2023-01-27T04:45:12.637Z,4.91
2023-01-27T04:49:13.900Z,4.85
2023-01-27T04:53:16.653Z,4.92
2023-01-27T04:57:16.777Z,4.81
2023-01-27T05:01:16.810Z,4.97
2023-01-27T05:05:16.944Z,5.05
2023-01-27T05:09:20.079Z,4.95
2023-01-27T05:13:20.097Z,5.09
2023-01-27T05:17:20.298Z,5.21
2023-01-27T05:21:23.265Z,4.93
2023-01-27T05:25:25.837Z,4.65
2023-01-27T05:29:26.468Z,4.79
2023-01-27T05:33:26.538Z,4.94
2023-01-27T05:37:26.669Z,4.97
2023-01-27T05:41:31.538Z,5.13
2023-01-27T05:45:31.581Z,4.96
2023-01-27T05:49:31.957Z,5.13
2023-01-27T05:53:32.146Z,4.83
2023-01-27T05:57:34.806Z,5.01
2023-01-27T06:01:37.761Z,4.90
2023-01-27T06:05:38.351Z,4.76
2023-01-27T06:09:38.934Z,4.88
2023-01-27T06:13:41.910Z,4.86
2023-01-27T06:17:42.178Z,4.76
2023-01-27T06:21:42.217Z,4.85
2023-01-27T06:25:44.763Z,4.63
2023-01-27T06:29:47.638Z,4.93
2023-01-27T06:33:48.345Z,5.00
2023-01-27T06:37:50.086Z,4.93
2023-01-27T06:41:52.200Z,4.95
2023-01-27T06:45:57.684Z,4.82
2023-01-27T06:49:57.878Z,4.93
2023-01-27T06:53:57.896Z,4.90
2023-01-27T06:57:58.178Z,4.75
2023-01-27T07:02:01.991Z,4.85
2023-01-27T07:06:02.202Z,4.33
2023-01-27T07:10:02.310Z,4.74
2023-01-27T07:14:03.118Z,4.59
2023-01-27T07:18:07.432Z,4.95
2023-01-27T07:22:08.181Z,4.87
2023-01-27T07:26:23.321Z,5.03
2023-01-27T07:30:25.006Z,5.19
2023-01-27T07:34:27.905Z,5.12
2023-01-27T07:38:27.988Z,5.12
2023-01-27T07:42:28.175Z,4.94
2023-01-27T07:46:28.438Z,5.06
2023-01-27T07:50:31.245Z,5.20
2023-01-27T07:54:39.311Z,4.97
2023-01-27T07:58:39.397Z,5.32
2023-01-27T08:02:39.468Z,5.40
2023-01-27T08:06:43.666Z,5.21
2023-01-27T08:10:48.282Z,5.22
2023-01-27T08:15:40.770Z,5.64
2023-01-27T08:19:40.849Z,5.36
2023-01-27T08:23:43.641Z,5.54
2023-01-27T08:27:43.749Z,5.72
2023-01-27T08:31:44.385Z,5.82
2023-01-27T08:35:45.443Z,5.54
2023-01-27T08:39:48.109Z,5.95
2023-01-27T08:43:49.405Z,5.62
2023-01-27T08:47:49.555Z,6.08
2023-01-27T08:51:49.680Z,5.74
2023-01-27T08:55:54.675Z,6.08
2023-01-27T08:59:58.198Z,6.41
2023-01-27T09:08:35.036Z,6.35
2023-01-27T09:12:37.732Z,6.71
2023-01-27T09:16:37.975Z,6.99
2023-01-27T09:20:38.398Z,7.10
2023-01-27T09:24:40.400Z,7.23
2023-01-27T09:28:43.184Z,7.25
2023-01-27T09:32:44.228Z,7.27
2023-01-27T09:36:51.041Z,7.35
2023-01-27T09:41:26.677Z,7.44
2023-01-27T09:46:10.052Z,7.50
2023-01-27T09:50:42.527Z,7.24
2023-01-27T09:55:00.547Z,7.61
2023-01-27T09:59:28.499Z,7.42
2023-01-27T10:03:59.250Z,7.39
2023-01-27T10:08:24.807Z,7.45
2023-01-27T10:12:47.834Z,7.13
2023-01-27T10:17:21.579Z,7.20
2023-01-27T10:21:37.012Z,7.06
2023-01-27T10:25:55.490Z,7.00
2023-01-27T10:30:02.696Z,7.01
2023-01-27T10:34:21.611Z,7.20
2023-01-27T10:38:42.056Z,7.48
2023-01-27T10:42:52.178Z,7.41
2023-01-27T10:47:04.298Z,7.34
2023-01-27T10:51:11.669Z,7.54
2023-01-27T10:55:25.668Z,7.94
2023-01-27T10:59:37.211Z,8.03
2023-01-27T11:03:45.046Z,8.50
2023-01-27T11:08:05.710Z,8.11
2023-01-27T11:12:14.649Z,7.61
2023-01-27T11:16:20.415Z,7.28
2023-01-27T11:20:35.159Z,7.49
2023-01-27T11:29:35.316Z,7.03
2023-01-27T11:33:58.218Z,7.20
2023-01-27T11:38:14.922Z,6.95
2023-01-27T11:42:17.362Z,6.71
2023-01-27T11:46:27.456Z,7.00
2023-01-27T11:50:33.490Z,7.00
2023-01-27T11:54:39.451Z,7.10
2023-01-27T11:58:46.713Z,7.09
2023-01-27T12:03:00.940Z,7.19
2023-01-27T12:07:08.395Z,7.28
2023-01-27T12:11:36.805Z,7.64
2023-01-27T12:15:40.239Z,8.03
2023-01-27T12:19:52.091Z,8.22
2023-01-27T12:23:59.310Z,8.46
2023-01-27T12:28:05.591Z,8.55
2023-01-27T12:32:22.115Z,8.48
2023-01-27T12:36:29.148Z,8.90
2023-01-27T12:40:32.370Z,9.02
2023-01-27T12:45:22.195Z,7.39
2023-01-27T12:49:28.661Z,7.74
2023-01-27T12:53:31.547Z,7.82
2023-01-27T12:57:35.891Z,7.69
2023-01-27T13:01:41.493Z,8.10
2023-01-27T13:05:46.136Z,8.41
2023-01-27T13:09:58.741Z,8.46
2023-01-27T13:14:01.365Z,8.27
2023-01-27T13:18:03.594Z,8.28
2023-01-27T13:22:06.885Z,8.02
2023-01-27T13:26:19.149Z,8.23
2023-01-27T13:30:30.420Z,8.18
2023-01-27T13:34:53.304Z,8.17
2023-01-27T13:39:03.218Z,8.00
2023-01-27T13:43:15.175Z,7.65
2023-01-27T13:47:22.187Z,7.74
2023-01-27T13:51:26.536Z,7.41
2023-01-27T13:55:50.934Z,7.59
2023-01-27T14:00:10.793Z,7.47
2023-01-27T14:09:20.314Z,7.06
2023-01-27T14:13:55.064Z,7.16
2023-01-27T14:18:06.509Z,6.81
2023-01-27T14:22:19.461Z,7.06
2023-01-27T14:26:43.058Z,6.68
2023-01-27T14:30:47.131Z,6.67
2023-01-27T14:35:10.028Z,6.00
2023-01-27T14:39:23.801Z,6.38
2023-01-27T14:43:39.537Z,6.47
2023-01-27T14:47:54.458Z,6.54
2023-01-27T14:52:05.395Z,6.74
2023-01-27T14:56:15.503Z,6.52
2023-01-27T15:00:33.344Z,6.79
2023-01-27T15:04:54.018Z,6.69
2023-01-27T15:09:09.798Z,6.81
2023-01-27T15:13:40.058Z,6.62
2023-01-27T15:18:03.968Z,6.49
2023-01-27T15:22:42.074Z,6.50
2023-01-27T15:26:46.121Z,6.36
2023-01-27T15:31:23.029Z,6.49
2023-01-27T15:35:41.790Z,6.45
2023-01-27T15:40:05.603Z,6.29
2023-01-27T15:44:19.101Z,6.10
2023-01-27T15:48:27.381Z,6.22
2023-01-27T15:52:34.616Z,6.29
2023-01-27T15:56:50.455Z,6.26
2023-01-27T16:00:59.255Z,5.94
2023-01-27T16:05:18.284Z,6.06
2023-01-27T16:09:36.038Z,6.12
2023-01-27T16:13:38.780Z,6.22
2023-01-27T16:18:02.644Z,6.13
2023-01-27T16:22:07.557Z,6.08
2023-01-27T16:26:25.467Z,6.00
2023-01-27T16:30:30.589Z,5.86
2023-01-27T16:34:40.974Z,5.73
2023-01-27T16:38:45.865Z,5.87
2023-01-27T16:43:04.908Z,5.66
2023-01-27T16:47:16.878Z,5.67
2023-01-27T16:51:26.039Z,5.53
2023-01-27T16:55:26.965Z,5.46
2023-01-27T16:59:31.128Z,5.53
2023-01-27T17:03:39.857Z,5.74
2023-01-27T17:07:42.465Z,5.60
2023-01-27T17:11:46.052Z,5.64
2023-01-27T17:15:47.239Z,5.68
2023-01-27T17:19:51.562Z,5.72
2023-01-27T17:23:54.716Z,5.83
2023-01-27T17:27:55.316Z,5.86
2023-01-27T17:31:55.635Z,5.65
2023-01-27T17:36:00.062Z,5.73
2023-01-27T17:40:05.497Z,5.76
2023-01-27T17:44:14.014Z,5.69
2023-01-27T17:48:16.049Z,5.90
2023-01-27T17:52:23.865Z,5.60
2023-01-27T17:56:32.355Z,5.72
2023-01-27T18:00:38.365Z,5.70
2023-01-27T18:04:45.037Z,5.87
2023-01-27T18:08:54.919Z,5.67
2023-01-27T18:12:59.080Z,5.97
2023-01-27T18:17:05.545Z,5.83
2023-01-27T18:21:15.756Z,5.75
2023-01-27T18:25:21.776Z,5.95
2023-01-27T18:29:30.341Z,5.93
2023-01-27T18:33:30.620Z,5.92
2023-01-27T18:37:34.417Z,5.95
2023-01-27T18:41:38.174Z,5.89
2023-01-27T18:45:41.040Z,5.85
2023-01-27T18:49:41.145Z,5.70
2023-01-27T18:53:41.199Z,5.69
2023-01-27T18:57:41.581Z,5.68
2023-01-27T19:01:44.435Z,5.81
2023-01-27T19:05:44.632Z,5.64
2023-01-27T19:09:45.753Z,5.50
2023-01-27T19:13:46.460Z,5.88
2023-01-27T19:17:50.619Z,6.01
2023-01-27T19:21:50.787Z,6.02
2023-01-27T19:25:55.468Z,5.92
2023-01-27T19:29:55.779Z,6.10
2023-01-27T19:33:58.569Z,6.12
2023-01-27T19:38:00.401Z,6.11
2023-01-27T19:42:00.511Z,6.15
2023-01-27T19:46:00.952Z,6.13
2023-01-27T19:50:05.179Z,6.00
2023-01-27T19:54:05.325Z,6.12
2023-01-27T19:58:06.018Z,5.92
2023-01-27T20:02:06.253Z,5.90
2023-01-27T20:06:18.550Z,6.06
2023-01-27T20:10:22.926Z,6.08
2023-01-27T20:14:25.872Z,5.92
2023-01-27T20:18:26.867Z,6.12
2023-01-27T20:22:29.911Z,6.19
2023-01-27T20:26:31.441Z,6.21
2023-01-27T20:30:36.456Z,6.34
2023-01-27T20:34:38.737Z,6.38
2023-01-27T20:38:42.293Z,6.45
2023-01-27T20:42:42.511Z,6.40
2023-01-27T20:46:43.000Z,6.32
2023-01-27T20:50:43.015Z,6.15
2023-01-27T20:54:45.809Z,5.99
2023-01-27T20:58:46.480Z,6.14
2023-01-27T21:02:46.790Z,6.10
2023-01-27T21:06:46.937Z,6.13
2023-01-27T21:10:49.683Z,6.14
2023-01-27T21:14:49.919Z,6.10
2023-01-27T21:18:50.046Z,6.18
2023-01-27T21:22:50.380Z,6.21
2023-01-27T21:26:54.490Z,6.13
2023-01-27T21:30:54.575Z,6.21
2023-01-27T21:34:56.595Z,6.11
2023-01-27T21:38:58.029Z,6.01
2023-01-27T21:43:13.067Z,6.20
2023-01-27T21:47:15.951Z,6.14
2023-01-27T21:51:16.437Z,6.03
2023-01-27T21:55:20.638Z,6.30
